createdAt,value
2022-10-13T00:01:53.778Z,95857.69
2022-10-13T00:05:41.829Z,95844.16
2022-10-13T00:09:24.498Z,95854.47
2022-10-13T00:13:08.027Z,95842.41
2022-10-13T00:16:50.640Z,95839.41
2022-10-13T00:20:33.289Z,95841.22
2022-10-13T00:24:17.286Z,95844.41
2022-10-13T00:27:59.964Z,95842.78
2022-10-13T00:31:42.582Z,95840.34
2022-10-13T00:35:25.229Z,95841.53
2022-10-13T00:39:08.197Z,95853.66
2022-10-13T00:42:52.248Z,95843.16
2022-10-13T00:46:36.935Z,95841.16
2022-10-13T00:50:22.886Z,95849.66
2022-10-13T00:54:07.095Z,95841.16
2022-10-13T00:57:54.829Z,95839.91
2022-10-13T01:01:37.992Z,95844.28
2022-10-13T01:05:22.160Z,95832.88
2022-10-13T01:09:04.892Z,95842.13
2022-10-13T01:12:54.153Z,95839.25
2022-10-13T01:16:43.774Z,95844.47
2022-10-13T01:20:40.503Z,95840.75
2022-10-13T01:24:44.223Z,95833.81
2022-10-13T01:28:41.915Z,95825.31
2022-10-13T01:32:31.650Z,95835.38
2022-10-13T01:36:21.522Z,95842.97
2022-10-13T01:40:08.838Z,95831.22
2022-10-13T01:43:54.416Z,95847.72
2022-10-13T01:47:38.711Z,95848.47
2022-10-13T01:51:23.347Z,95849.66
2022-10-13T01:55:08.257Z,95857.38
2022-10-13T01:58:52.314Z,95848.31
2022-10-13T02:02:41.152Z,95847.88
2022-10-13T02:06:26.752Z,95847.97
2022-10-13T02:10:13.168Z,95844.72
2022-10-13T02:14:00.505Z,95853.22
2022-10-13T02:17:44.603Z,95853.22
2022-10-13T02:21:27.599Z,95852.22
2022-10-13T02:25:10.465Z,95862.44
2022-10-13T02:28:53.205Z,95869.31
2022-10-13T02:32:35.862Z,95850.31
2022-10-13T02:36:19.867Z,95856.75
2022-10-13T02:40:02.525Z,95858.28
2022-10-13T02:43:45.122Z,95853.03
2022-10-13T02:47:27.754Z,95851.03
2022-10-13T02:51:10.351Z,95845.06
2022-10-13T02:54:54.550Z,95846.34
2022-10-13T02:58:37.459Z,95850.78
2022-10-13T03:02:20.520Z,95842.09
2022-10-13T03:06:03.692Z,95839.00
2022-10-13T03:09:46.356Z,95839.81
2022-10-13T03:13:30.503Z,95834.94
2022-10-13T03:17:13.647Z,95838.47
2022-10-13T03:20:57.983Z,95827.16
2022-10-13T03:24:40.611Z,95825.53
2022-10-13T03:28:23.840Z,95824.19
2022-10-13T03:32:08.001Z,95817.94
2022-10-13T03:35:50.651Z,95813.06
2022-10-13T03:39:33.349Z,95824.53
2022-10-13T03:43:15.968Z,95829.50
2022-10-13T03:46:58.628Z,95835.56
2022-10-13T03:50:42.692Z,95836.75
2022-10-13T03:54:25.329Z,95841.63
2022-10-13T03:58:07.956Z,95838.00
2022-10-13T04:01:50.646Z,95846.25
2022-10-13T04:05:35.613Z,95846.59
2022-10-13T04:09:19.659Z,95851.84
2022-10-13T04:13:02.284Z,95850.84
2022-10-13T04:16:44.957Z,95847.56
2022-10-13T04:20:27.657Z,95853.94
2022-10-13T04:24:11.572Z,95852.75
2022-10-13T04:27:55.533Z,95861.88
2022-10-13T04:31:38.555Z,95855.28
2022-10-13T04:35:21.200Z,95851.31
2022-10-13T04:39:03.916Z,95854.75
2022-10-13T04:42:46.542Z,95842.72
2022-10-13T04:46:30.746Z,95844.81
2022-10-13T04:50:13.616Z,95838.81
2022-10-13T04:53:56.868Z,95837.28
2022-10-13T04:57:39.530Z,95841.44
2022-10-13T05:01:24.056Z,95835.47
2022-10-13T05:05:09.058Z,95827.88
2022-10-13T05:08:52.058Z,95830.78
2022-10-13T05:12:34.693Z,95834.09
2022-10-13T05:16:18.402Z,95822.88
2022-10-13T05:20:01.094Z,95832.81
2022-10-13T05:23:45.818Z,95825.81
2022-10-13T05:27:28.493Z,95831.16
2022-10-13T05:31:12.486Z,95827.41
2022-10-13T05:34:55.150Z,95833.38
2022-10-13T05:38:37.870Z,95833.00
2022-10-13T05:42:22.242Z,95834.25
2022-10-13T05:46:05.507Z,95833.88
2022-10-13T05:49:48.182Z,95831.50
2022-10-13T05:53:32.466Z,95830.75
2022-10-13T05:57:17.449Z,95828.63
2022-10-13T06:01:01.429Z,95823.25
2022-10-13T06:04:46.954Z,95819.72
2022-10-13T06:08:30.313Z,95834.41
2022-10-13T06:12:12.992Z,95830.19
2022-10-13T06:15:55.636Z,95824.75
2022-10-13T06:19:39.650Z,95829.44
2022-10-13T06:23:22.522Z,95823.84
2022-10-13T06:27:05.790Z,95822.19
2022-10-13T06:30:53.769Z,95828.63
2022-10-13T06:34:37.136Z,95821.31
2022-10-13T06:38:21.497Z,95833.00
2022-10-13T06:42:04.246Z,95834.19
2022-10-13T06:45:46.952Z,95830.13
2022-10-13T06:49:29.951Z,95827.88
2022-10-13T06:53:12.590Z,95828.06
2022-10-13T06:56:56.593Z,95826.88
2022-10-13T07:00:41.561Z,95831.53
2022-10-13T07:04:25.889Z,95833.97
2022-10-13T07:08:08.545Z,95833.41
2022-10-13T07:11:51.273Z,95836.63
2022-10-13T07:15:35.886Z,95829.00
2022-10-13T07:19:18.505Z,95826.16
2022-10-13T07:23:01.109Z,95833.47
2022-10-13T07:26:43.789Z,95832.28
2022-10-13T07:30:26.590Z,95820.13
2022-10-13T07:34:10.652Z,95824.56
2022-10-13T07:37:53.722Z,95816.91
2022-10-13T07:41:39.539Z,95822.19
2022-10-13T07:45:22.215Z,95821.59
2022-10-13T07:49:04.920Z,95820.59
2022-10-13T07:52:49.004Z,95814.09
2022-10-13T07:56:31.711Z,95808.22
2022-10-13T08:00:14.924Z,95809.66
2022-10-13T08:03:57.800Z,95821.81
2022-10-13T08:07:40.447Z,95812.91
2022-10-13T08:11:24.472Z,95808.44
2022-10-13T08:15:08.588Z,95797.69
2022-10-13T08:18:51.473Z,95805.19
2022-10-13T08:22:34.742Z,95814.53
2022-10-13T08:26:19.622Z,95811.69
2022-10-13T08:30:03.736Z,95809.28
2022-10-13T08:33:47.576Z,95824.72
2022-10-13T08:37:30.307Z,95833.84
2022-10-13T08:41:17.150Z,95815.78
2022-10-13T08:45:36.420Z,95810.91
2022-10-13T08:49:07.103Z,95825.13
2022-10-13T08:52:51.350Z,95818.63
2022-10-13T08:56:36.073Z,95812.53
2022-10-13T09:00:20.527Z,95803.41
2022-10-13T09:04:17.340Z,95811.50
2022-10-13T09:08:00.805Z,95819.41
2022-10-13T09:11:45.200Z,95803.09
2022-10-13T09:15:29.238Z,95807.56
2022-10-13T09:19:21.106Z,95804.72
2022-10-13T09:23:05.574Z,95797.38
2022-10-13T09:26:50.442Z,95789.25
2022-10-13T09:30:37.051Z,95790.06
2022-10-13T09:34:25.759Z,95792.44
2022-10-13T09:38:12.416Z,95778.09
2022-10-13T09:42:13.317Z,95800.50
2022-10-13T09:45:57.971Z,95789.09
2022-10-13T09:49:42.791Z,95783.78
2022-10-13T09:53:29.966Z,95782.50
2022-10-13T09:57:21.812Z,95776.84
2022-10-13T10:01:06.743Z,95782.13
2022-10-13T10:04:50.644Z,95774.13
2022-10-13T10:09:01.678Z,95773.41
2022-10-13T10:12:42.686Z,95787.56
2022-10-13T10:16:31.514Z,95783.72
2022-10-13T10:20:27.523Z,95783.25
2022-10-13T10:24:18.172Z,95789.53
2022-10-13T10:28:17.830Z,95773.06
2022-10-13T10:32:10.880Z,95777.47
2022-10-13T10:35:57.331Z,95772.13
2022-10-13T10:39:43.096Z,95780.81
2022-10-13T10:43:33.996Z,95770.28
2022-10-13T10:47:23.480Z,95759.75
2022-10-13T10:51:07.646Z,95751.38
2022-10-13T10:54:54.453Z,95757.41
2022-10-13T10:58:42.974Z,95741.81
2022-10-13T11:02:48.309Z,95738.88
2022-10-13T11:06:36.111Z,95736.16
2022-10-13T11:10:21.397Z,95728.94
2022-10-13T11:14:25.384Z,95718.88
2022-10-13T11:18:41.938Z,95705.53
2022-10-13T11:22:27.363Z,95705.13
2022-10-13T11:26:41.413Z,95702.63
2022-10-13T11:30:44.705Z,95701.28
2022-10-13T11:34:29.783Z,95693.09
2022-10-13T11:38:25.198Z,95689.66
2022-10-13T11:42:20.309Z,95693.13
2022-10-13T11:46:23.881Z,95689.34
2022-10-13T11:50:09.959Z,95688.28
2022-10-13T11:53:57.530Z,95684.16
2022-10-13T11:57:40.302Z,95679.41
2022-10-13T12:01:22.955Z,95669.16
2022-10-13T12:05:08.775Z,95669.97
2022-10-13T12:08:52.662Z,95655.44
2022-10-13T12:12:36.760Z,95649.91
2022-10-13T12:16:19.617Z,95648.06
2022-10-13T12:20:04.111Z,95640.91
2022-10-13T12:23:47.795Z,95634.09
2022-10-13T12:27:33.503Z,95629.56
2022-10-13T12:31:21.825Z,95631.94
2022-10-13T12:35:19.895Z,95637.69
2022-10-13T12:39:04.501Z,95628.72
2022-10-13T12:42:48.651Z,95647.59
2022-10-13T12:46:40.109Z,95639.50
2022-10-13T12:50:39.400Z,95632.09
2022-10-13T12:54:27.788Z,95625.31
2022-10-13T12:58:19.932Z,95630.84
2022-10-13T13:02:05.476Z,95619.06
2022-10-13T13:05:52.403Z,95604.38
2022-10-13T13:09:38.888Z,95601.63
2022-10-13T13:13:23.937Z,95598.50
2022-10-13T13:17:12.530Z,95603.19
2022-10-13T13:20:55.686Z,95598.50
2022-10-13T13:24:40.403Z,95596.06
2022-10-13T13:28:23.393Z,95598.63
2022-10-13T13:32:06.197Z,95604.03
2022-10-13T13:35:50.239Z,95593.03
2022-10-13T13:39:32.909Z,95588.88
2022-10-13T13:43:15.725Z,95574.81
2022-10-13T13:47:16.005Z,95577.44
2022-10-13T13:51:01.581Z,95587.06
2022-10-13T13:54:44.935Z,95581.34
2022-10-13T13:58:27.659Z,95581.34
2022-10-13T14:02:31.944Z,95583.94
2022-10-13T14:06:20.171Z,95583.03
2022-10-13T14:10:03.140Z,95567.16
2022-10-13T14:13:45.978Z,95565.41
2022-10-13T14:17:28.808Z,95560.41
2022-10-13T14:21:11.512Z,95560.75
2022-10-13T14:24:55.537Z,95563.00
2022-10-13T14:28:38.265Z,95576.34
2022-10-13T14:32:31.650Z,95562.97
2022-10-13T14:36:15.635Z,95561.81
2022-10-13T14:39:59.673Z,95557.22
2022-10-13T14:43:42.328Z,95546.84
2022-10-13T14:47:44.514Z,95552.25
2022-10-13T14:51:27.228Z,95563.28
2022-10-13T14:55:11.625Z,95549.63
2022-10-13T14:58:57.185Z,95550.56
2022-10-13T15:02:39.836Z,95557.41
2022-10-13T15:06:24.027Z,95545.06
2022-10-13T15:10:07.984Z,95546.97
2022-10-13T15:13:52.321Z,95539.97
2022-10-13T15:17:53.151Z,95535.44
2022-10-13T15:21:35.832Z,95544.94
2022-10-13T15:25:18.505Z,95542.34
2022-10-13T15:29:02.556Z,95546.94
2022-10-13T15:32:54.452Z,95543.03
2022-10-13T15:36:37.199Z,95549.88
2022-10-13T15:40:20.328Z,95549.78
2022-10-13T15:44:04.403Z,95552.56
2022-10-13T15:48:02.056Z,95543.25
2022-10-13T15:51:44.722Z,95547.88
2022-10-13T15:55:28.903Z,95543.97
2022-10-13T15:59:12.960Z,95552.31
2022-10-13T16:03:10.753Z,95550.91
2022-10-13T16:06:53.660Z,95548.72
2022-10-13T16:10:36.319Z,95539.97
2022-10-13T16:14:20.361Z,95542.06
2022-10-13T16:18:08.198Z,95532.72
2022-10-13T16:21:50.838Z,95540.56
2022-10-13T16:25:33.583Z,95537.22
2022-10-13T16:29:16.282Z,95543.72
2022-10-13T16:33:15.251Z,95550.38
2022-10-13T16:36:58.229Z,95558.78
2022-10-13T16:40:40.985Z,95558.53
2022-10-13T16:44:23.679Z,95559.22
2022-10-13T16:48:27.954Z,95564.16
2022-10-13T16:52:12.280Z,95564.75
2022-10-13T16:55:54.961Z,95569.75
2022-10-13T16:59:37.651Z,95557.53
2022-10-13T17:03:50.596Z,95559.69
2022-10-13T17:07:34.644Z,95550.53
2022-10-13T17:11:18.592Z,95559.00
2022-10-13T17:15:01.258Z,95565.34
2022-10-13T17:18:59.215Z,95559.41
2022-10-13T17:22:43.260Z,95566.03
2022-10-13T17:26:26.554Z,95558.06
2022-10-13T17:30:11.070Z,95566.66
2022-10-13T17:34:09.226Z,95569.97
2022-10-13T17:37:54.662Z,95566.97
2022-10-13T17:41:38.163Z,95558.09
2022-10-13T17:45:21.591Z,95563.25
2022-10-13T17:49:14.086Z,95565.75
2022-10-13T17:52:58.146Z,95555.59
2022-10-13T17:56:41.495Z,95558.09
2022-10-13T18:00:24.579Z,95562.66
2022-10-13T18:04:33.006Z,95555.59
2022-10-13T18:08:18.388Z,95557.06
2022-10-13T18:12:01.085Z,95552.66
2022-10-13T18:15:43.752Z,95557.56
2022-10-13T18:19:36.537Z,95553.94
2022-10-13T18:23:23.438Z,95556.44
2022-10-13T18:27:06.154Z,95548.34
2022-10-13T18:30:48.878Z,95536.59
2022-10-13T18:34:50.390Z,95543.34
2022-10-13T18:38:34.783Z,95539.50
2022-10-13T18:42:17.512Z,95547.88
2022-10-13T18:46:00.757Z,95539.78
2022-10-13T18:50:02.391Z,95536.41
2022-10-13T18:53:48.396Z,95538.00
2022-10-13T18:57:31.118Z,95531.53
2022-10-13T19:01:15.554Z,95542.13
2022-10-13T19:05:00.807Z,95531.97
2022-10-13T19:08:43.877Z,95526.31
2022-10-13T19:12:27.997Z,95520.66
2022-10-13T19:16:12.321Z,95520.28
2022-10-13T19:20:15.958Z,95516.63
2022-10-13T19:23:59.857Z,95521.44
2022-10-13T19:27:43.889Z,95517.94
2022-10-13T19:31:28.293Z,95518.31
2022-10-13T19:35:22.217Z,95521.63
2022-10-13T19:39:06.928Z,95527.97
2022-10-13T19:42:51.065Z,95527.31
2022-10-13T19:46:34.168Z,95520.44
2022-10-13T19:50:37.021Z,95513.53
2022-10-13T19:54:20.904Z,95511.59
2022-10-13T19:58:04.914Z,95501.09
2022-10-13T20:01:47.825Z,95511.66
2022-10-13T20:05:33.341Z,95514.06
2022-10-13T20:09:18.929Z,95522.66
2022-10-13T20:13:01.550Z,95516.22
2022-10-13T20:16:45.861Z,95521.75
2022-10-13T20:20:48.637Z,95519.50
2022-10-13T20:24:31.529Z,95515.88
2022-10-13T20:28:14.478Z,95522.00
2022-10-13T20:31:58.639Z,95518.78
2022-10-13T20:35:42.764Z,95521.47
2022-10-13T20:39:25.577Z,95519.88
2022-10-13T20:43:09.399Z,95517.06
2022-10-13T20:46:52.542Z,95522.59
2022-10-13T20:50:36.796Z,95528.94
2022-10-13T20:54:21.250Z,95521.66
2022-10-13T20:58:06.446Z,95522.09
2022-10-13T21:01:49.609Z,95514.00
2022-10-13T21:05:33.390Z,95513.63
2022-10-13T21:09:23.221Z,95510.38
2022-10-13T21:13:14.670Z,95510.78
2022-10-13T21:16:57.414Z,95506.72
2022-10-13T21:20:41.940Z,95514.84
2022-10-13T21:24:26.132Z,95515.28
2022-10-13T21:28:08.874Z,95511.25
2022-10-13T21:31:52.356Z,95507.78
2022-10-13T21:35:42.748Z,95526.66
2022-10-13T21:39:26.895Z,95530.69
2022-10-13T21:43:09.665Z,95524.22
2022-10-13T21:46:53.281Z,95535.81
2022-10-13T21:50:37.476Z,95539.28
2022-10-13T21:54:20.600Z,95567.25
2022-10-13T21:58:08.497Z,95559.97
2022-10-13T22:01:55.265Z,95563.63
2022-10-13T22:05:39.410Z,95568.50
2022-10-13T22:09:22.143Z,95572.56
2022-10-13T22:13:09.878Z,95579.91
2022-10-13T22:16:56.519Z,95585.19
2022-10-13T22:20:39.498Z,95597.34
2022-10-13T22:24:22.585Z,95591.88
2022-10-13T22:28:09.898Z,95603.06
2022-10-13T22:31:58.964Z,95598.56
2022-10-13T22:35:41.730Z,95592.97
2022-10-13T22:39:24.742Z,95595.44
2022-10-13T22:43:07.643Z,95592.41
2022-10-13T22:46:50.373Z,95588.97
2022-10-13T22:50:35.525Z,95597.53
2022-10-13T22:54:18.225Z,95582.53
2022-10-13T22:58:02.578Z,95584.16
2022-10-13T23:02:00.958Z,95587.00
2022-10-13T23:05:48.061Z,95576.47
2022-10-13T23:09:31.018Z,95571.81
2022-10-13T23:13:15.815Z,95562.28
2022-10-13T23:17:15.748Z,95566.31
2022-10-13T23:21:05.463Z,95559.41
2022-10-13T23:24:48.140Z,95546.84
2022-10-13T23:28:31.451Z,95552.50
2022-10-13T23:32:30.080Z,95549.66
2022-10-13T23:36:16.532Z,95544.00
2022-10-13T23:39:59.217Z,95537.09
2022-10-13T23:43:42.278Z,95534.88
2022-10-13T23:47:34.472Z,95523.94
2022-10-13T23:51:20.652Z,95531.41
2022-10-13T23:55:03.358Z,95529.38
2022-10-13T23:58:46.446Z,95532.63
